Time;durP1;ratioP1;P1;durP2;ratioP2;P2;SDS_P1;SDS_P2;PMS_P1;PMS_P2;Temp;Humidity;BMP_temperature;BMP_pressure;BME280_temperature;BME280_humidity;BME280_pressure;Samples;Min_cycle;Max_cycle;Signal;HPM_P1;HPM_P2
2021/06/04 00:00:20;;;;;;;31.90;17.35;;;21.30;77.70;;;;;;4934120;28;20441;-76
2021/06/04 00:02:47;;;;;;;26.58;17.10;;;21.30;78.00;;;;;;4946458;28;20902;-76
2021/06/04 00:05:15;;;;;;;29.48;17.40;;;21.20;78.10;;;;;;4950650;28;20433;-77
2021/06/04 00:07:42;;;;;;;26.30;17.47;;;21.20;78.40;;;;;;4937006;29;20504;-77
2021/06/04 00:10:11;;;;;;;28.73;17.42;;;21.20;78.60;;;;;;4949523;28;20214;-77
2021/06/04 00:12:38;;;;;;;26.60;16.92;;;20.80;79.20;;;;;;4952521;28;20226;-78
2021/06/04 00:15:09;;;;;;;29.38;17.55;;;20.60;80.00;;;;;;4952450;28;20211;-78
2021/06/04 00:17:37;;;;;;;29.60;18.08;;;20.40;80.50;;;;;;4934712;29;20219;-76
2021/06/04 00:20:07;;;;;;;29.88;17.15;;;20.30;81.00;;;;;;4948671;28;20202;-77
2021/06/04 00:22:34;;;;;;;34.20;18.35;;;20.10;81.30;;;;;;4948809;28;20201;-78
2021/06/04 00:25:01;;;;;;;29.20;18.60;;;20.00;81.70;;;;;;4936441;28;20198;-77
2021/06/04 00:27:27;;;;;;;30.15;19.25;;;19.90;82.10;;;;;;4950522;28;20265;-77
2021/06/04 00:29:53;;;;;;;35.58;19.42;;;19.90;82.50;;;;;;4950454;29;20214;-77
2021/06/04 00:32:22;;;;;;;33.10;19.17;;;19.80;82.70;;;;;;4933067;29;20223;-78
2021/06/04 00:34:50;;;;;;;32.03;19.13;;;19.80;83.10;;;;;;4951358;28;20211;-78
2021/06/04 00:37:18;;;;;;;30.60;18.60;;;19.70;83.40;;;;;;4949656;28;20399;-77
2021/06/04 00:39:45;;;;;;;35.17;20.55;;;19.70;83.80;;;;;;4951865;28;20234;-77
2021/06/04 00:42:16;;;;;;;38.85;20.77;;;19.70;84.10;;;;;;4934807;28;20207;-77
2021/06/04 00:44:44;;;;;;;32.22;19.17;;;19.60;84.30;;;;;;4934915;28;20203;-77
2021/06/04 00:47:11;;;;;;;36.55;19.23;;;19.60;84.60;;;;;;4932304;29;20213;-77
2021/06/04 00:49:38;;;;;;;36.53;19.60;;;19.50;84.80;;;;;;4933961;29;20202;-77
2021/06/04 00:52:11;;;;;;;35.03;19.48;;;19.50;85.00;;;;;;4949526;28;20246;-77
2021/06/04 00:54:38;;;;;;;33.05;19.60;;;19.40;85.20;;;;;;4953923;28;20245;-77
2021/06/04 00:57:07;;;;;;;38.10;20.10;;;19.40;85.40;;;;;;4933325;28;20706;-77
2021/06/04 00:59:39;;;;;;;36.90;20.33;;;19.30;85.60;;;;;;4953219;28;20198;-77
2021/06/04 01:02:18;;;;;;;31.63;19.13;;;19.30;86.60;;;;;;4949192;28;20221;-77
2021/06/04 01:04:46;;;;;;;33.17;19.52;;;19.30;86.00;;;;;;4933011;29;20242;-77
2021/06/04 01:07:20;;;;;;;33.88;18.17;;;19.20;86.10;;;;;;4950841;28;20266;-77
2021/06/04 01:10:10;;;;;;;32.80;17.92;;;19.30;86.30;;;;;;4935644;29;20217;-76
2021/06/04 01:12:55;;;;;;;33.38;19.17;;;19.20;86.30;;;;;;4946785;28;20269;-75
2021/06/04 01:15:38;;;;;;;28.48;17.27;;;19.10;86.50;;;;;;4945077;28;20211;-77
2021/06/04 01:18:09;;;;;;;32.67;17.02;;;19.10;86.70;;;;;;4949550;29;20202;-77
2021/06/04 01:20:43;;;;;;;36.00;17.73;;;19.10;86.90;;;;;;4929164;29;20246;-77
2021/06/04 01:23:33;;;;;;;28.05;17.40;;;19.10;86.90;;;;;;4931880;29;20294;-77
2021/06/04 01:26:07;;;;;;;34.25;17.15;;;19.10;86.90;;;;;;4929731;28;20210;-77
2021/06/04 01:28:36;;;;;;;30.83;16.45;;;19.10;87.70;;;;;;4947147;28;20220;-78
2021/06/04 01:31:07;;;;;;;30.33;17.20;;;19.00;87.10;;;;;;4948928;28;20198;-77
2021/06/04 01:33:42;;;;;;;31.50;18.27;;;19.00;87.30;;;;;;4932390;29;20229;-77
2021/06/04 01:36:09;;;;;;;31.52;17.90;;;19.00;87.50;;;;;;4932095;29;20693;-77
2021/06/04 01:38:39;;;;;;;31.05;17.60;;;18.90;87.60;;;;;;4934413;28;20233;-77
2021/06/04 01:41:12;;;;;;;30.65;17.05;;;18.90;87.70;;;;;;4949651;28;20230;-76
2021/06/04 01:43:43;;;;;;;31.90;16.23;;;18.90;87.80;;;;;;4950820;28;20190;-77
2021/06/04 01:46:14;;;;;;;27.30;16.15;;;18.90;87.90;;;;;;4933217;29;20686;-77
2021/06/04 01:48:49;;;;;;;28.50;17.50;;;18.90;87.90;;;;;;4950391;28;20440;-77
2021/06/04 01:51:26;;;;;;;30.27;18.75;;;19.40;87.60;;;;;;4946646;28;20456;-76
2021/06/04 01:54:06;;;;;;;31.27;18.20;;;19.70;86.30;;;;;;4950337;28;20846;-77
2021/06/04 01:56:38;;;;;;;31.27;17.42;;;19.80;85.70;;;;;;4947016;28;23097;-77
2021/06/04 01:59:14;;;;;;;31.73;17.85;;;20.00;85.10;;;;;;4948516;28;20437;-76
2021/06/04 02:01:46;;;;;;;28.00;17.67;;;20.10;84.70;;;;;;4948193;28;20434;-77
2021/06/04 02:04:16;;;;;;;26.05;17.40;;;20.20;84.30;;;;;;4930313;29;20509;-77
2021/06/04 02:06:48;;;;;;;30.02;18.05;;;20.20;84.10;;;;;;4948440;28;20461;-76
2021/06/04 02:09:19;;;;;;;27.85;17.42;;;20.20;84.00;;;;;;4949901;28;20519;-77
2021/06/04 02:11:53;;;;;;;30.40;17.95;;;20.30;83.80;;;;;;4931035;28;20460;-76
2021/06/04 02:14:31;;;;;;;27.55;17.73;;;20.30;83.60;;;;;;4948598;28;20433;-77
2021/06/04 02:17:12;;;;;;;26.92;17.48;;;20.30;83.50;;;;;;4950586;28;20440;-77
2021/06/04 02:19:50;;;;;;;29.23;18.40;;;20.40;83.40;;;;;;4932371;29;20506;-77
2021/06/04 02:22:45;;;;;;;30.10;18.05;;;20.40;83.50;;;;;;4927629;29;20490;-76
2021/06/04 02:25:28;;;;;;;30.33;18.30;;;20.40;83.60;;;;;;4946975;28;20907;-77
2021/06/04 02:28:03;;;;;;;29.88;17.45;;;20.40;83.70;;;;;;4950836;28;20440;-76
2021/06/04 02:30:36;;;;;;;30.83;17.33;;;20.40;83.90;;;;;;4950064;28;20438;-77
2021/06/04 02:33:08;;;;;;;27.30;17.23;;;20.30;84.20;;;;;;4953404;28;20523;-77
2021/06/04 02:35:38;;;;;;;29.63;18.48;;;20.30;85.50;;;;;;4935034;29;20429;-77
2021/06/04 02:38:12;;;;;;;31.33;18.37;;;20.30;84.80;;;;;;4934927;29;20430;-76
2021/06/04 02:40:43;;;;;;;33.60;20.10;;;20.30;85.10;;;;;;4952172;28;20437;-77
2021/06/04 02:43:18;;;;;;;35.38;20.00;;;20.30;85.60;;;;;;4937056;29;21032;-76
2021/06/04 02:45:50;;;;;;;34.57;20.60;;;20.30;85.90;;;;;;4935561;28;20500;-77
2021/06/04 02:48:20;;;;;;;37.03;20.90;;;20.30;86.30;;;;;;4950107;28;20918;-77
2021/06/04 02:50:50;;;;;;;33.70;20.38;;;20.20;86.60;;;;;;4937188;28;20954;-77
2021/06/04 02:53:22;;;;;;;34.30;19.25;;;20.20;86.90;;;;;;4933685;29;20799;-77
2021/06/04 02:56:13;;;;;;;32.42;19.00;;;20.20;87.00;;;;;;4952173;28;20925;-76
2021/06/04 02:58:47;;;;;;;36.72;20.08;;;20.10;86.90;;;;;;4928899;29;20929;-78
2021/06/04 03:01:14;;;;;;;35.17;18.88;;;20.10;87.10;;;;;;4950714;28;20806;-77
2021/06/04 03:03:47;;;;;;;30.92;19.45;;;20.10;87.20;;;;;;4934520;29;20520;-77
2021/06/04 03:06:15;;;;;;;28.27;19.60;;;20.10;87.40;;;;;;4937346;28;20431;-77
2021/06/04 03:08:44;;;;;;;28.67;18.30;;;20.10;87.40;;;;;;4951280;28;20510;-77
2021/06/04 03:11:13;;;;;;;32.47;18.70;;;20.00;86.90;;;;;;4935929;28;20436;-77
2021/06/04 03:13:40;;;;;;;31.55;19.67;;;20.10;87.00;;;;;;4952112;28;20433;-77
2021/06/04 03:16:14;;;;;;;34.58;19.63;;;20.10;86.90;;;;;;4952129;28;20441;-78
2021/06/04 03:18:43;;;;;;;28.67;18.25;;;20.10;86.80;;;;;;4947571;28;20433;-77
2021/06/04 03:21:15;;;;;;;31.47;18.43;;;20.10;86.80;;;;;;4951159;28;20847;-78
2021/06/04 03:23:44;;;;;;;30.50;17.90;;;20.00;87.40;;;;;;4932665;29;20433;-77
2021/06/04 03:26:15;;;;;;;32.33;18.23;;;20.10;86.70;;;;;;4951088;28;20534;-77
2021/06/04 03:28:44;;;;;;;31.65;18.00;;;20.00;87.60;;;;;;4934044;29;20438;-76
2021/06/04 03:31:16;;;;;;;32.15;17.65;;;20.00;86.90;;;;;;4948571;28;20506;-76
2021/06/04 03:33:42;;;;;;;30.33;17.60;;;20.00;86.90;;;;;;4933861;28;20439;-76
2021/06/04 03:36:16;;;;;;;32.28;17.40;;;20.00;87.00;;;;;;4931692;29;20818;-75
2021/06/04 03:38:43;;;;;;;26.53;17.13;;;20.00;87.10;;;;;;4949325;28;20910;-76
2021/06/04 03:41:11;;;;;;;30.85;17.30;;;20.00;87.30;;;;;;4951471;28;20441;-77
2021/06/04 03:43:43;;;;;;;29.23;18.55;;;20.00;87.60;;;;;;4935781;28;20447;-76
2021/06/04 03:46:11;;;;;;;31.45;18.40;;;20.00;87.80;;;;;;4930774;29;20938;-76
2021/06/04 03:48:40;;;;;;;29.85;18.33;;;20.00;87.90;;;;;;4934877;28;20814;-76
2021/06/04 03:51:11;;;;;;;33.42;18.33;;;20.00;87.90;;;;;;4934206;28;20452;-76
2021/06/04 03:53:38;;;;;;;29.73;18.73;;;20.00;88.00;;;;;;4953525;28;21003;-78
2021/06/04 03:56:07;;;;;;;30.63;19.23;;;20.00;88.10;;;;;;4931554;28;20916;-78
2021/06/04 03:58:34;;;;;;;33.20;19.40;;;20.00;88.20;;;;;;4951777;28;22101;-76
2021/06/04 04:01:05;;;;;;;30.92;19.13;;;20.00;88.10;;;;;;4932359;29;20768;-75
2021/06/04 04:03:33;;;;;;;33.55;19.40;;;20.00;88.10;;;;;;4935522;29;20528;-76
2021/06/04 04:05:59;;;;;;;30.85;18.75;;;20.00;88.30;;;;;;4949362;28;20433;-76
2021/06/04 04:08:28;;;;;;;29.50;18.00;;;20.10;88.30;;;;;;4933065;29;20437;-78
2021/06/04 04:10:56;;;;;;;29.07;17.57;;;20.00;88.40;;;;;;4949578;28;20496;-77
2021/06/04 04:13:23;;;;;;;27.80;17.05;;;20.00;88.40;;;;;;4950695;28;20456;-77
2021/06/04 04:15:51;;;;;;;29.77;17.10;;;20.00;88.40;;;;;;4949769;28;20433;-78
2021/06/04 04:18:17;;;;;;;28.75;17.25;;;20.00;88.60;;;;;;4932256;28;20441;-76
2021/06/04 04:20:47;;;;;;;30.63;16.67;;;20.00;88.70;;;;;;4949375;28;20584;-78
2021/06/04 04:23:16;;;;;;;28.23;16.63;;;20.00;88.90;;;;;;4932227;28;20460;-76
2021/06/04 04:25:45;;;;;;;28.70;17.17;;;20.00;89.10;;;;;;4950156;28;20429;-76
2021/06/04 04:28:14;;;;;;;29.23;16.13;;;20.00;89.10;;;;;;4949737;28;20906;-76
2021/06/04 04:30:41;;;;;;;34.92;17.02;;;20.00;89.10;;;;;;4948801;28;20453;-77
2021/06/04 04:33:08;;;;;;;30.88;16.45;;;20.00;89.20;;;;;;4951590;28;20448;-77
2021/06/04 04:35:36;;;;;;;26.20;15.98;;;20.00;89.30;;;;;;4948876;28;20448;-74
2021/06/04 04:38:05;;;;;;;26.42;16.20;;;20.00;89.50;;;;;;4947284;28;20433;-77
2021/06/04 04:40:35;;;;;;;28.95;15.98;;;20.00;89.60;;;;;;4931231;28;20450;-77
2021/06/04 04:43:02;;;;;;;25.75;15.60;;;20.00;89.70;;;;;;4947087;28;20437;-75
2021/06/04 04:45:31;;;;;;;25.60;15.43;;;20.00;89.80;;;;;;4948033;28;20433;-77
2021/06/04 04:47:58;;;;;;;25.85;14.80;;;20.00;89.60;;;;;;4947178;28;20436;-77
2021/06/04 04:50:26;;;;;;;22.58;14.93;;;20.00;89.40;;;;;;4930142;29;20449;-76
2021/06/04 04:52:53;;;;;;;30.25;16.10;;;20.10;89.40;;;;;;4930074;28;20430;-77
2021/06/04 04:55:23;;;;;;;29.67;15.50;;;20.10;89.30;;;;;;4947696;28;20448;-75
2021/06/04 04:57:50;;;;;;;27.07;15.07;;;20.10;89.20;;;;;;4945109;28;20497;-74
2021/06/04 05:00:20;;;;;;;27.35;14.95;;;20.20;89.30;;;;;;4947916;28;20433;-77
2021/06/04 05:02:46;;;;;;;26.63;14.60;;;20.20;89.20;;;;;;4945798;28;20520;-77
2021/06/04 05:05:14;;;;;;;27.48;14.75;;;20.20;89.20;;;;;;4949122;28;20773;-77
2021/06/04 05:07:40;;;;;;;28.30;15.50;;;20.20;89.20;;;;;;4944608;28;20425;-77
2021/06/04 05:10:09;;;;;;;27.10;16.65;;;20.20;89.30;;;;;;4928884;28;20450;-76
2021/06/04 05:12:37;;;;;;;31.38;15.93;;;20.20;89.70;;;;;;4946027;28;20949;-76
2021/06/04 05:15:07;;;;;;;28.75;16.35;;;20.20;89.80;;;;;;4945564;28;20431;-77
2021/06/04 05:17:33;;;;;;;29.52;16.45;;;20.20;89.90;;;;;;4945580;28;20446;-74
2021/06/04 05:20:00;;;;;;;27.70;15.68;;;20.20;90.00;;;;;;4946662;28;20425;-75
2021/06/04 05:22:26;;;;;;;29.35;14.50;;;20.20;90.10;;;;;;4949169;28;20520;-76
2021/06/04 05:24:53;;;;;;;25.02;14.35;;;20.20;89.90;;;;;;4945161;28;20700;-75
2021/06/04 05:27:20;;;;;;;24.60;14.65;;;20.20;89.60;;;;;;4949281;28;20818;-75
2021/06/04 05:29:48;;;;;;;24.65;13.82;;;20.20;89.40;;;;;;4949609;28;20932;-75
2021/06/04 05:32:15;;;;;;;23.88;14.15;;;20.20;89.10;;;;;;4946700;28;20433;-74
2021/06/04 05:34:42;;;;;;;24.93;13.90;;;20.20;89.20;;;;;;4944297;28;20437;-76
2021/06/04 05:37:08;;;;;;;29.83;14.83;;;20.20;89.20;;;;;;4932096;29;20441;-74
2021/06/04 05:39:34;;;;;;;25.83;13.60;;;20.20;89.30;;;;;;4949033;28;20433;-74
2021/06/04 05:42:04;;;;;;;28.35;14.60;;;20.20;89.40;;;;;;4929411;29;20434;-75
2021/06/04 05:44:34;;;;;;;27.50;14.70;;;20.20;89.40;;;;;;4946142;28;21212;-74
2021/06/04 05:47:05;;;;;;;23.25;14.23;;;20.20;89.50;;;;;;4946027;28;21015;-75
2021/06/04 05:49:32;;;;;;;31.75;14.07;;;20.20;89.60;;;;;;4948953;28;20436;-75
2021/06/04 05:52:00;;;;;;;24.30;14.50;;;20.20;89.60;;;;;;4949423;28;20916;-76
2021/06/04 05:54:27;;;;;;;26.30;14.23;;;20.20;89.70;;;;;;4948473;28;20433;-76
2021/06/04 05:56:55;;;;;;;27.10;14.05;;;20.20;89.40;;;;;;4934725;29;20418;-76
2021/06/04 05:59:21;;;;;;;25.77;14.18;;;20.20;89.60;;;;;;4947755;28;20452;-76
2021/06/04 06:01:48;;;;;;;26.02;13.95;;;20.30;89.80;;;;;;4950755;28;20417;-77
2021/06/04 06:04:17;;;;;;;23.15;13.30;;;20.30;89.60;;;;;;4951611;28;20421;-78
2021/06/04 06:06:43;;;;;;;25.00;13.93;;;20.30;89.70;;;;;;4935318;29;20429;-77
2021/06/04 06:09:10;;;;;;;22.40;13.17;;;20.30;89.60;;;;;;4953547;28;20458;-76
2021/06/04 06:11:38;;;;;;;23.73;13.90;;;20.40;89.70;;;;;;4948732;28;20446;-75
2021/06/04 06:14:07;;;;;;;23.98;13.10;;;20.40;89.60;;;;;;4951865;28;20442;-74
2021/06/04 06:16:33;;;;;;;28.03;13.60;;;20.40;89.60;;;;;;4935734;28;20446;-76
2021/06/04 06:19:00;;;;;;;22.70;13.20;;;20.40;89.70;;;;;;4952286;28;20436;-77
2021/06/04 06:21:28;;;;;;;22.20;13.05;;;20.50;89.80;;;;;;4949969;28;20429;-74
2021/06/04 06:23:55;;;;;;;25.33;13.10;;;20.50;90.00;;;;;;4951791;28;20437;-76
2021/06/04 06:26:25;;;;;;;25.33;12.97;;;20.50;90.00;;;;;;4951762;28;20413;-74
2021/06/04 06:28:53;;;;;;;21.73;12.13;;;20.60;90.00;;;;;;4948225;28;20429;-75
2021/06/04 06:31:22;;;;;;;22.05;11.88;;;20.60;89.90;;;;;;4948285;28;20429;-76
2021/06/04 06:33:49;;;;;;;18.40;11.70;;;20.70;90.00;;;;;;4949908;28;21128;-75
2021/06/04 06:36:19;;;;;;;22.02;11.75;;;20.70;89.70;;;;;;4949590;28;20441;-74
2021/06/04 06:38:48;;;;;;;24.27;11.27;;;20.70;89.40;;;;;;4951227;28;20683;-74
2021/06/04 06:41:16;;;;;;;20.17;11.40;;;20.80;89.30;;;;;;4950807;28;20444;-74
2021/06/04 06:43:46;;;;;;;17.30;10.30;;;20.80;89.40;;;;;;4934074;29;20218;-75
2021/06/04 06:46:14;;;;;;;25.10;10.90;;;20.50;90.00;;;;;;4950045;28;20219;-76
2021/06/04 06:48:41;;;;;;;19.35;10.82;;;20.30;90.30;;;;;;4948913;28;20260;-74
2021/06/04 06:51:09;;;;;;;23.38;11.07;;;20.20;90.60;;;;;;4953916;28;20217;-76
2021/06/04 06:53:38;;;;;;;25.33;12.70;;;20.10;90.70;;;;;;4949284;29;20828;-76
2021/06/04 06:56:08;;;;;;;21.10;10.88;;;20.00;90.90;;;;;;4953009;28;20277;-75
2021/06/04 06:58:36;;;;;;;20.95;10.63;;;20.00;91.00;;;;;;4950053;28;20210;-74
2021/06/04 07:01:04;;;;;;;17.20;9.43;;;19.90;91.00;;;;;;4944965;28;20672;-75
2021/06/04 07:03:35;;;;;;;20.55;10.55;;;19.90;91.10;;;;;;4949866;28;20306;-75
2021/06/04 07:06:03;;;;;;;21.52;10.52;;;19.90;91.10;;;;;;4953848;28;20278;-75
2021/06/04 07:08:30;;;;;;;20.95;10.20;;;19.90;91.20;;;;;;4933009;28;20221;-76
2021/06/04 07:10:58;;;;;;;19.75;10.30;;;19.90;91.20;;;;;;4949610;28;20202;-76
2021/06/04 07:13:27;;;;;;;18.88;10.20;;;19.90;91.30;;;;;;4954968;28;20223;-80
2021/06/04 07:15:54;;;;;;;18.15;10.30;;;19.90;91.40;;;;;;4938588;29;20608;-77
2021/06/04 07:18:21;;;;;;;15.95;9.23;;;19.90;91.40;;;;;;4954748;28;20273;-75
2021/06/04 07:20:50;;;;;;;21.88;10.20;;;20.00;91.50;;;;;;4953051;28;20206;-76
2021/06/04 07:23:17;;;;;;;15.13;9.35;;;20.00;91.40;;;;;;4953692;28;20564;-74
2021/06/04 07:25:46;;;;;;;16.70;8.68;;;20.00;91.40;;;;;;4954829;28;20690;-74
2021/06/04 07:28:13;;;;;;;18.55;9.73;;;20.00;91.40;;;;;;4937476;29;20210;-78
2021/06/04 07:30:44;;;;;;;21.30;9.70;;;20.00;91.40;;;;;;4952846;28;20206;-76
2021/06/04 07:33:14;;;;;;;14.85;8.80;;;20.10;91.40;;;;;;4930913;29;20578;-76
2021/06/04 07:35:41;;;;;;;15.38;8.75;;;20.10;91.40;;;;;;4952097;28;20238;-76
2021/06/04 07:38:08;;;;;;;17.90;8.93;;;20.20;91.50;;;;;;4950230;28;20210;-76
2021/06/04 07:40:37;;;;;;;16.55;8.93;;;20.20;91.50;;;;;;4950921;28;20234;-76
2021/06/04 07:43:09;;;;;;;14.52;8.80;;;20.10;91.40;;;;;;4935839;28;20705;-76
2021/06/04 07:45:37;;;;;;;19.65;8.90;;;20.20;91.50;;;;;;4951524;28;20684;-76
2021/06/04 07:48:08;;;;;;;19.63;8.95;;;20.20;91.50;;;;;;4951707;28;20730;-75
2021/06/04 07:50:35;;;;;;;22.60;9.18;;;20.20;91.50;;;;;;4953955;28;20194;-75
2021/06/04 07:53:01;;;;;;;16.90;8.88;;;20.20;91.50;;;;;;4952209;28;20217;-76
2021/06/04 07:55:28;;;;;;;19.40;9.00;;;20.30;91.50;;;;;;4952039;28;20213;-75
2021/06/04 07:57:54;;;;;;;19.85;9.45;;;20.30;91.40;;;;;;4952575;28;20257;-74
2021/06/04 08:00:24;;;;;;;17.35;8.90;;;20.30;91.40;;;;;;4950912;28;20692;-75
2021/06/04 08:02:51;;;;;;;17.75;9.25;;;20.30;91.40;;;;;;4934846;29;20202;-76
2021/06/04 08:05:19;;;;;;;22.95;9.45;;;20.40;91.30;;;;;;4951444;28;20210;-75
2021/06/04 08:07:45;;;;;;;15.88;8.35;;;20.40;91.20;;;;;;4934109;29;20246;-75
2021/06/04 08:10:14;;;;;;;16.90;9.07;;;20.40;91.10;;;;;;4949747;28;20213;-76
2021/06/04 08:12:42;;;;;;;14.73;8.45;;;20.50;91.20;;;;;;4952919;28;20201;-76
2021/06/04 08:15:13;;;;;;;14.65;8.48;;;20.50;91.10;;;;;;4934899;29;20211;-76
2021/06/04 08:17:41;;;;;;;13.82;8.38;;;20.50;91.00;;;;;;4951441;28;20253;-75
2021/06/04 08:20:11;;;;;;;17.48;8.77;;;20.60;90.90;;;;;;4953023;28;20214;-74
2021/06/04 08:22:43;;;;;;;16.65;8.73;;;20.60;90.80;;;;;;4934579;28;20561;-76
2021/06/04 08:25:11;;;;;;;17.33;9.23;;;20.60;90.90;;;;;;4953660;28;20225;-77
2021/06/04 08:27:37;;;;;;;15.23;8.77;;;20.70;90.80;;;;;;4949788;28;20211;-75
2021/06/04 08:30:06;;;;;;;15.57;9.00;;;20.70;90.70;;;;;;4951129;28;20225;-76
2021/06/04 08:32:33;;;;;;;15.35;8.68;;;20.80;90.70;;;;;;4949981;28;20210;-76
2021/06/04 08:35:00;;;;;;;19.08;8.50;;;20.80;90.60;;;;;;4936638;28;20198;-76
2021/06/04 08:37:26;;;;;;;14.48;8.80;;;20.80;90.50;;;;;;4952196;28;20580;-77
2021/06/04 08:39:54;;;;;;;18.02;8.73;;;20.90;90.50;;;;;;4952952;28;20249;-75
2021/06/04 08:42:32;;;;;;;15.13;8.02;;;20.90;90.50;;;;;;4951130;28;20211;-76
2021/06/04 08:45:13;;;;;;;18.75;8.27;;;21.00;90.70;;;;;;4951332;28;20321;-74
2021/06/04 08:47:43;;;;;;;19.85;8.20;;;21.00;90.60;;;;;;4951460;28;20219;-74
2021/06/04 08:50:19;;;;;;;19.50;7.90;;;21.10;90.50;;;;;;4950614;28;20246;-75
2021/06/04 08:52:56;;;;;;;18.65;8.02;;;21.20;90.30;;;;;;4952575;28;20213;-75
2021/06/04 08:55:35;;;;;;;12.95;7.90;;;21.30;90.20;;;;;;4953124;28;20209;-74
2021/06/04 08:58:17;;;;;;;14.65;8.02;;;21.40;90.10;;;;;;4951165;28;20213;-78
2021/06/04 09:00:50;;;;;;;17.55;8.30;;;21.40;89.80;;;;;;4933231;28;20212;-77
2021/06/04 09:03:23;;;;;;;16.13;7.63;;;21.50;89.40;;;;;;4950949;28;20209;-74
2021/06/04 09:05:52;;;;;;;12.15;7.68;;;21.50;89.10;;;;;;4949969;28;20198;-76
2021/06/04 09:08:24;;;;;;;14.80;8.02;;;21.50;88.90;;;;;;4951141;28;20257;-74
2021/06/04 09:10:55;;;;;;;16.40;7.80;;;21.70;88.60;;;;;;4953637;28;20257;-75
2021/06/04 09:13:24;;;;;;;23.40;8.70;;;21.70;88.50;;;;;;4948586;28;20203;-78
2021/06/04 09:16:00;;;;;;;16.67;8.60;;;21.70;88.00;;;;;;4948708;28;20203;-75
2021/06/04 09:18:34;;;;;;;15.77;7.65;;;21.80;87.50;;;;;;4948065;28;20206;-74
2021/06/04 09:21:05;;;;;;;15.13;8.02;;;21.80;87.30;;;;;;4950050;28;20213;-75
2021/06/04 09:23:35;;;;;;;12.40;8.07;;;21.90;87.00;;;;;;4949103;28;20624;-75
2021/06/04 09:26:04;;;;;;;12.95;7.80;;;21.90;86.70;;;;;;4950456;28;20214;-76
2021/06/04 09:28:34;;;;;;;14.40;8.38;;;21.90;86.70;;;;;;4949752;28;20210;-76
2021/06/04 09:31:17;;;;;;;14.35;7.88;;;22.00;86.20;;;;;;4933498;29;20210;-76
2021/06/04 09:33:48;;;;;;;14.40;7.50;;;22.10;86.10;;;;;;4932305;29;20285;-75
2021/06/04 09:36:16;;;;;;;12.57;7.18;;;22.10;86.10;;;;;;4948625;28;20252;-74
2021/06/04 09:38:45;;;;;;;16.13;8.07;;;22.20;85.90;;;;;;4952149;28;20730;-74
2021/06/04 09:41:19;;;;;;;11.52;7.25;;;22.30;85.40;;;;;;4949471;28;20202;-75
2021/06/04 09:43:49;;;;;;;12.45;6.93;;;22.40;85.10;;;;;;4945468;28;20202;-74
2021/06/04 09:46:28;;;;;;;13.38;7.18;;;22.50;84.90;;;;;;4946385;28;20755;-75
2021/06/04 09:49:00;;;;;;;13.25;7.13;;;22.60;84.60;;;;;;4948703;28;20202;-74
2021/06/04 09:51:30;;;;;;;14.30;8.18;;;22.70;84.40;;;;;;4948366;28;20541;-76
2021/06/04 09:54:17;;;;;;;18.08;7.63;;;22.70;84.00;;;;;;4950401;28;20222;-76
2021/06/04 09:56:45;;;;;;;10.93;6.90;;;22.80;83.80;;;;;;4931055;29;20218;-76
2021/06/04 09:59:14;;;;;;;11.77;7.28;;;22.80;83.60;;;;;;4947781;28;20206;-76
2021/06/04 10:01:44;;;;;;;11.00;7.00;;;22.90;83.30;;;;;;4949254;28;20213;-75
2021/06/04 10:04:15;;;;;;;14.10;7.20;;;23.00;83.10;;;;;;4950414;28;20202;-78
2021/06/04 10:06:46;;;;;;;15.10;7.55;;;23.00;83.00;;;;;;4950043;28;20229;-76
2021/06/04 10:09:29;;;;;;;11.25;7.65;;;23.10;82.70;;;;;;4949027;28;20215;-75
2021/06/04 10:12:03;;;;;;;15.05;8.30;;;23.10;82.10;;;;;;4946918;28;20449;-75
2021/06/04 10:14:49;;;;;;;13.07;7.68;;;23.70;80.20;;;;;;4946016;28;20434;-76
2021/06/04 10:17:47;;;;;;;12.20;7.30;;;24.00;79.10;;;;;;4932219;28;20209;-77
2021/06/04 10:20:38;;;;;;;11.77;7.32;;;23.90;80.20;;;;;;4949744;28;20214;-77
2021/06/04 10:23:09;;;;;;;12.05;7.38;;;23.90;80.50;;;;;;4944608;28;20218;-76
2021/06/04 10:25:40;;;;;;;15.30;7.43;;;24.00;80.50;;;;;;4947238;28;20866;-75
2021/06/04 10:28:27;;;;;;;18.70;7.72;;;24.10;80.10;;;;;;4950801;28;20265;-75
2021/06/04 10:30:57;;;;;;;18.20;8.63;;;24.20;79.70;;;;;;4947755;28;20213;-74
2021/06/04 10:33:34;;;;;;;13.88;8.00;;;24.30;79.40;;;;;;4948594;28;20226;-74
2021/06/04 10:36:03;;;;;;;16.23;8.07;;;24.40;79.10;;;;;;4948571;28;20214;-75
2021/06/04 10:38:35;;;;;;;12.70;8.10;;;24.50;78.70;;;;;;4930888;28;20726;-75
2021/06/04 10:41:09;;;;;;;15.48;7.97;;;24.60;78.00;;;;;;4948813;28;20273;-75
2021/06/04 10:43:51;;;;;;;15.05;8.05;;;24.70;77.60;;;;;;4946724;28;20199;-75
2021/06/04 10:46:23;;;;;;;18.20;7.68;;;24.80;77.30;;;;;;4949042;28;21022;-74
2021/06/04 10:49:00;;;;;;;18.25;8.05;;;24.90;77.00;;;;;;4953635;28;20217;-75
2021/06/04 10:51:33;;;;;;;17.05;7.75;;;25.00;76.80;;;;;;4952518;28;20253;-75
2021/06/04 10:54:11;;;;;;;14.65;7.20;;;25.20;76.20;;;;;;4952716;28;20214;-75
2021/06/04 10:56:44;;;;;;;12.65;7.43;;;25.30;75.60;;;;;;4951975;28;20206;-74
2021/06/04 10:59:20;;;;;;;18.50;7.57;;;25.40;74.80;;;;;;4953049;28;20198;-74
2021/06/04 11:01:53;;;;;;;14.68;7.07;;;25.50;74.10;;;;;;4950876;28;20218;-74
2021/06/04 11:04:25;;;;;;;14.60;7.15;;;25.60;73.50;;;;;;4952563;28;20199;-74
2021/06/04 11:07:02;;;;;;;10.48;6.22;;;25.70;72.60;;;;;;4951656;28;20214;-74
2021/06/04 11:09:47;;;;;;;12.88;6.60;;;25.70;71.90;;;;;;4952713;28;20203;-74
2021/06/04 11:12:21;;;;;;;10.40;6.80;;;25.80;71.50;;;;;;4949064;28;20218;-73
2021/06/04 11:14:59;;;;;;;12.48;6.70;;;26.00;71.20;;;;;;4948872;28;20229;-73
2021/06/04 11:17:31;;;;;;;13.10;6.20;;;26.10;71.10;;;;;;4948685;28;20635;-73
2021/06/04 11:20:06;;;;;;;12.10;6.90;;;26.10;70.80;;;;;;4953193;28;20222;-74
2021/06/04 11:22:50;;;;;;;12.68;7.20;;;26.20;70.60;;;;;;4952644;28;20260;-73
2021/06/04 11:25:27;;;;;;;14.23;6.80;;;26.30;70.10;;;;;;4950416;28;20198;-74
2021/06/04 11:28:05;;;;;;;11.93;6.30;;;26.40;69.80;;;;;;4952464;28;20646;-74
2021/06/04 11:30:34;;;;;;;12.75;6.70;;;26.50;69.60;;;;;;4934278;28;20207;-74
2021/06/04 11:33:06;;;;;;;11.65;6.80;;;26.60;69.30;;;;;;4951719;28;20202;-74
2021/06/04 11:35:37;;;;;;;10.95;7.15;;;26.70;69.20;;;;;;4951571;28;20276;-74
2021/06/04 11:38:09;;;;;;;11.57;6.68;;;26.80;68.80;;;;;;4951539;28;20206;-76
2021/06/04 11:40:41;;;;;;;9.52;6.10;;;26.90;68.70;;;;;;4950941;28;20234;-75
2021/06/04 11:43:14;;;;;;;12.07;6.65;;;27.10;68.30;;;;;;4954960;28;20214;-75
2021/06/04 11:45:43;;;;;;;10.80;6.40;;;27.20;67.70;;;;;;4952350;28;20214;-75
2021/06/04 11:48:35;;;;;;;13.10;7.30;;;27.30;67.20;;;;;;4952141;28;20210;-75
2021/06/04 11:51:25;;;;;;;10.27;6.88;;;27.50;66.90;;;;;;4946990;28;20210;-76
2021/06/04 11:53:52;;;;;;;10.10;7.18;;;27.50;67.40;;;;;;4940166;28;20773;-75
2021/06/04 11:56:41;;;;;;;11.73;8.10;;;27.70;66.30;;;;;;4952812;28;20217;-75
2021/06/04 11:59:13;;;;;;;9.55;6.38;;;27.80;65.80;;;;;;4949111;28;20211;-75
2021/06/04 12:01:48;;;;;;;9.98;6.78;;;27.90;65.50;;;;;;4951681;28;20214;-74
2021/06/04 12:04:18;;;;;;;14.50;7.13;;;28.00;65.10;;;;;;4949382;28;20198;-75
2021/06/04 12:07:03;;;;;;;11.60;6.70;;;28.10;64.60;;;;;;4934207;29;20289;-75
2021/06/04 12:09:48;;;;;;;10.50;6.35;;;28.30;64.30;;;;;;4933091;29;20286;-75
2021/06/04 12:13:00;;;;;;;9.98;7.45;;;28.50;63.60;;;;;;4951812;28;20202;-74
2021/06/04 12:15:49;;;;;;;14.18;8.20;;;28.50;62.80;;;;;;4951748;28;20206;-75
2021/06/04 12:18:47;;;;;;;12.52;7.40;;;28.60;62.20;;;;;;4949436;28;20210;-74
2021/06/04 12:21:47;;;;;;;12.70;7.65;;;28.60;62.30;;;;;;4933388;28;20562;-73
2021/06/04 12:24:48;;;;;;;9.95;7.00;;;28.70;62.30;;;;;;4948390;28;20198;-75
2021/06/04 12:27:43;;;;;;;14.40;8.23;;;28.90;61.70;;;;;;4949856;28;20260;-74
2021/06/04 12:30:15;;;;;;;10.77;7.43;;;29.00;60.90;;;;;;4947986;28;20237;-74
2021/06/04 12:33:01;;;;;;;13.75;7.40;;;29.10;60.10;;;;;;4951220;28;20667;-75
2021/06/04 12:35:41;;;;;;;12.55;8.10;;;29.10;59.90;;;;;;4948770;28;20205;-75
2021/06/04 12:38:26;;;;;;;11.38;7.25;;;29.10;59.70;;;;;;4953857;28;20924;-76
2021/06/04 12:40:54;;;;;;;15.70;8.43;;;29.20;59.40;;;;;;4952912;28;20256;-76
2021/06/04 12:43:24;;;;;;;13.70;9.20;;;29.30;59.20;;;;;;4950620;28;20670;-75
2021/06/04 12:46:02;;;;;;;17.27;9.10;;;29.50;58.80;;;;;;4950758;28;20213;-74
2021/06/04 12:48:33;;;;;;;16.25;9.07;;;29.60;58.70;;;;;;4946771;28;20374;-75
2021/06/04 12:51:22;;;;;;;16.88;9.60;;;29.80;58.30;;;;;;4952383;28;20210;-75
2021/06/04 12:53:50;;;;;;;17.75;10.35;;;30.00;58.20;;;;;;4951588;28;20217;-76